createdAt,value
2022-07-28T00:00:50.889Z,2.10
2022-07-28T00:03:18.120Z,1.87
2022-07-28T00:05:45.501Z,2.10
2022-07-28T00:08:13.182Z,1.70
2022-07-28T00:10:40.427Z,2.30
2022-07-28T00:13:07.559Z,2.17
2022-07-28T00:15:34.808Z,2.00
2022-07-28T00:18:02.029Z,2.17
2022-07-28T00:20:30.648Z,2.27
2022-07-28T00:22:57.893Z,2.20
2022-07-28T00:25:25.154Z,2.07
2022-07-28T00:27:52.297Z,2.00
2022-07-28T00:30:19.795Z,2.10
2022-07-28T00:32:47.060Z,1.83
2022-07-28T00:35:15.047Z,2.07
2022-07-28T00:37:42.875Z,1.60
2022-07-28T00:40:10.966Z,1.80
2022-07-28T00:42:38.194Z,1.50
2022-07-28T00:45:05.834Z,2.03
2022-07-28T00:47:33.867Z,1.60
2022-07-28T00:50:01.627Z,1.73
2022-07-28T00:52:28.840Z,1.70
2022-07-28T00:54:56.083Z,2.17
2022-07-28T00:57:23.214Z,2.07
2022-07-28T00:59:50.367Z,1.80
2022-07-28T01:02:17.705Z,1.83
2022-07-28T01:04:45.028Z,1.97
2022-07-28T01:07:31.438Z,1.90
2022-07-28T01:10:10.791Z,1.83
2022-07-28T01:12:41.039Z,2.07
2022-07-28T01:15:15.070Z,1.80
2022-07-28T01:17:48.003Z,1.80
2022-07-28T01:20:38.139Z,1.80
2022-07-28T01:23:11.217Z,2.00
2022-07-28T01:25:48.829Z,2.03
2022-07-28T01:28:21.973Z,2.07
2022-07-28T01:30:51.025Z,2.40
2022-07-28T01:33:19.671Z,1.90
2022-07-28T01:35:57.138Z,2.10
2022-07-28T01:38:24.849Z,1.80
2022-07-28T01:40:52.939Z,1.80
2022-07-28T01:43:24.297Z,1.80
2022-07-28T01:45:52.091Z,1.87
2022-07-28T01:48:20.718Z,1.93
2022-07-28T01:50:49.535Z,1.87
2022-07-28T01:53:17.325Z,1.90
2022-07-28T01:55:45.371Z,2.13
2022-07-28T01:58:14.399Z,2.03
2022-07-28T02:00:43.484Z,2.00
2022-07-28T02:03:11.765Z,2.07
2022-07-28T02:05:40.695Z,2.13
2022-07-28T02:08:08.482Z,2.07
2022-07-28T02:10:36.479Z,2.23
2022-07-28T02:13:03.799Z,1.73
2022-07-28T02:15:32.300Z,1.63
2022-07-28T02:17:59.778Z,1.90
2022-07-28T02:20:26.965Z,2.10
2022-07-28T02:22:54.602Z,1.90
2022-07-28T02:25:22.255Z,1.87
2022-07-28T02:27:49.404Z,2.13
2022-07-28T02:30:17.916Z,2.40
2022-07-28T02:32:47.780Z,2.10
2022-07-28T02:35:31.360Z,2.00
2022-07-28T02:38:03.192Z,2.13
2022-07-28T02:40:34.627Z,1.97
2022-07-28T02:43:02.076Z,1.97
2022-07-28T02:45:30.413Z,2.00
2022-07-28T02:47:59.142Z,2.10
2022-07-28T02:50:27.889Z,2.27
2022-07-28T02:52:58.611Z,1.90
2022-07-28T02:55:26.139Z,2.00
2022-07-28T02:57:56.791Z,2.27
2022-07-28T03:00:24.636Z,1.93
2022-07-28T03:02:53.158Z,1.87
2022-07-28T03:05:20.405Z,2.20
2022-07-28T03:07:52.610Z,1.90
2022-07-28T03:10:34.300Z,1.60
2022-07-28T03:13:02.254Z,1.90
2022-07-28T03:15:29.511Z,1.70
2022-07-28T03:17:56.649Z,1.93
2022-07-28T03:20:23.838Z,1.90
2022-07-28T03:22:51.010Z,1.67
2022-07-28T03:25:21.770Z,1.90
2022-07-28T03:27:50.278Z,1.80
2022-07-28T03:30:19.267Z,2.00
2022-07-28T03:32:49.064Z,1.87
2022-07-28T03:35:16.335Z,1.80
2022-07-28T03:37:49.766Z,1.90
2022-07-28T03:40:17.465Z,1.90
2022-07-28T03:42:47.611Z,1.73
2022-07-28T03:45:16.435Z,2.00
2022-07-28T03:47:54.513Z,2.00
2022-07-28T03:50:28.849Z,2.00
2022-07-28T03:52:56.277Z,2.17
2022-07-28T03:55:23.855Z,1.77
2022-07-28T03:57:51.388Z,2.13
2022-07-28T04:00:18.804Z,1.97
2022-07-28T04:02:46.970Z,2.10
2022-07-28T04:05:18.092Z,2.07
2022-07-28T04:07:48.468Z,2.30
2022-07-28T04:10:17.148Z,2.03
2022-07-28T04:12:48.231Z,2.00
2022-07-28T04:15:17.083Z,1.83
2022-07-28T04:17:44.419Z,2.00
2022-07-28T04:20:11.875Z,2.00
2022-07-28T04:22:39.104Z,2.10
2022-07-28T04:25:06.734Z,2.23
2022-07-28T04:27:36.261Z,2.30
2022-07-28T04:30:05.018Z,2.07
2022-07-28T04:32:32.200Z,2.13
2022-07-28T04:34:59.387Z,2.07
2022-07-28T04:37:27.358Z,2.03
2022-07-28T04:39:59.834Z,2.20
2022-07-28T04:42:27.003Z,2.10
2022-07-28T04:44:54.311Z,2.27
2022-07-28T04:47:21.797Z,2.10
2022-07-28T04:49:48.976Z,2.10
2022-07-28T04:52:16.237Z,2.20
2022-07-28T04:54:43.390Z,2.00
2022-07-28T04:57:12.830Z,2.03
2022-07-28T04:59:41.843Z,2.10
2022-07-28T05:02:09.927Z,2.10
2022-07-28T05:04:37.152Z,2.30
2022-07-28T05:07:07.766Z,2.10
2022-07-28T05:09:39.813Z,2.10
2022-07-28T05:12:07.099Z,2.30
2022-07-28T05:14:34.267Z,1.93
2022-07-28T05:17:01.450Z,2.20
2022-07-28T05:19:28.657Z,2.30
2022-07-28T05:21:55.817Z,2.50
2022-07-28T05:24:22.996Z,1.87
2022-07-28T05:26:50.138Z,2.50
2022-07-28T05:29:17.270Z,2.27
2022-07-28T05:31:44.513Z,2.57
2022-07-28T05:34:11.980Z,2.43
2022-07-28T05:36:39.673Z,2.63
2022-07-28T05:39:06.801Z,2.80
2022-07-28T05:41:34.711Z,2.90
2022-07-28T05:44:02.250Z,2.77
2022-07-28T05:46:29.529Z,2.80
2022-07-28T05:48:56.788Z,2.90
2022-07-28T05:51:23.950Z,2.80
2022-07-28T05:53:51.131Z,2.73
2022-07-28T05:56:18.257Z,2.83
2022-07-28T05:58:45.406Z,2.80
2022-07-28T06:01:18.242Z,3.53
2022-07-28T06:03:47.839Z,4.27
2022-07-28T06:06:25.345Z,4.60
2022-07-28T06:08:52.599Z,4.60
2022-07-28T06:11:22.394Z,4.30
2022-07-28T06:13:50.443Z,4.47
2022-07-28T06:16:18.743Z,4.27
2022-07-28T06:18:45.932Z,3.97
2022-07-28T06:21:13.102Z,4.13
2022-07-28T06:23:40.612Z,4.30
2022-07-28T06:26:07.813Z,4.60
2022-07-28T06:28:35.026Z,4.87
2022-07-28T06:31:02.292Z,3.90
2022-07-28T06:33:29.498Z,5.00
2022-07-28T06:35:57.162Z,4.23
2022-07-28T06:38:25.444Z,4.50
2022-07-28T06:40:52.692Z,4.47
2022-07-28T06:43:19.850Z,4.80
2022-07-28T06:45:47.053Z,5.03
2022-07-28T06:48:14.342Z,4.70
2022-07-28T06:50:42.072Z,4.33
2022-07-28T06:53:09.425Z,4.80
2022-07-28T06:55:37.806Z,4.83
2022-07-28T06:58:05.180Z,5.40
2022-07-28T07:00:32.980Z,5.63
2022-07-28T07:03:00.735Z,5.93
2022-07-28T07:05:31.872Z,6.27
2022-07-28T07:07:59.327Z,6.63
2022-07-28T07:10:26.523Z,6.30
2022-07-28T07:12:53.770Z,6.17
2022-07-28T07:15:20.916Z,6.00
2022-07-28T07:17:48.192Z,6.30
2022-07-28T07:20:17.230Z,5.60
2022-07-28T07:22:46.184Z,5.77
2022-07-28T07:25:14.646Z,5.50
2022-07-28T07:27:41.847Z,5.07
2022-07-28T07:30:09.622Z,4.83
2022-07-28T07:32:37.113Z,5.03
2022-07-28T07:35:04.607Z,4.73
2022-07-28T07:37:32.639Z,4.63
2022-07-28T07:40:00.384Z,4.77
2022-07-28T07:42:28.009Z,4.87
2022-07-28T07:44:55.180Z,4.47
2022-07-28T07:47:22.340Z,4.17
2022-07-28T07:49:49.545Z,4.20
2022-07-28T07:52:16.702Z,4.50
2022-07-28T07:54:44.157Z,4.10
2022-07-28T07:57:11.535Z,4.53
2022-07-28T07:59:38.741Z,3.97
2022-07-28T08:02:06.224Z,4.13
2022-07-28T08:04:37.702Z,4.10
2022-07-28T08:07:06.002Z,3.87
2022-07-28T08:09:33.294Z,3.83
2022-07-28T08:12:00.449Z,4.20
2022-07-28T08:14:27.699Z,3.87
2022-07-28T08:16:56.749Z,3.80
2022-07-28T08:19:24.093Z,3.40
2022-07-28T08:21:51.450Z,3.03
2022-07-28T08:24:32.561Z,3.07
2022-07-28T08:27:01.860Z,3.20
2022-07-28T08:29:29.040Z,2.70
2022-07-28T08:31:56.192Z,2.77
2022-07-28T08:34:26.207Z,1.97
2022-07-28T08:36:58.792Z,1.60
2022-07-28T08:39:25.946Z,2.00
2022-07-28T08:42:00.089Z,2.10
2022-07-28T08:44:34.204Z,1.20
2022-07-28T08:47:01.901Z,0.97
2022-07-28T08:49:29.669Z,1.73
2022-07-28T08:51:58.714Z,1.70
2022-07-28T08:54:27.853Z,1.77
2022-07-28T08:56:55.688Z,1.90
2022-07-28T08:59:23.665Z,1.47
2022-07-28T09:01:57.011Z,1.90
2022-07-28T09:04:25.097Z,1.60
2022-07-28T09:06:52.291Z,1.80
2022-07-28T09:09:21.578Z,1.83
2022-07-28T09:11:48.839Z,1.30
2022-07-28T09:14:16.563Z,1.20
2022-07-28T09:16:44.570Z,1.17
2022-07-28T09:19:11.719Z,0.98
2022-07-28T09:21:39.131Z,1.38
2022-07-28T09:24:06.635Z,1.38
2022-07-28T09:26:33.778Z,1.40
2022-07-28T09:29:03.900Z,1.30
2022-07-28T09:31:31.442Z,1.38
2022-07-28T09:34:00.943Z,1.30
2022-07-28T09:36:29.494Z,1.27
2022-07-28T09:38:57.078Z,1.13
2022-07-28T09:41:24.702Z,0.70
2022-07-28T09:43:55.222Z,0.77
2022-07-28T09:46:24.454Z,0.90
2022-07-28T09:48:56.970Z,0.70
2022-07-28T09:51:26.460Z,0.77
2022-07-28T09:53:54.026Z,0.80
2022-07-28T09:56:23.467Z,0.70
2022-07-28T09:58:54.648Z,0.60
2022-07-28T10:01:22.466Z,0.75
2022-07-28T10:03:58.234Z,0.60
2022-07-28T10:06:30.179Z,0.53
2022-07-28T10:08:58.579Z,0.67
2022-07-28T10:11:27.393Z,0.50
2022-07-28T10:13:55.867Z,0.60
2022-07-28T10:16:24.667Z,0.70
2022-07-28T10:18:52.177Z,0.70
2022-07-28T10:21:20.534Z,0.50
2022-07-28T10:23:52.016Z,0.70
2022-07-28T10:26:21.419Z,0.50
2022-07-28T10:28:49.844Z,0.50
2022-07-28T10:31:21.415Z,0.70
2022-07-28T10:33:51.683Z,0.60
2022-07-28T10:36:23.381Z,0.60
2022-07-28T10:38:50.961Z,0.60
2022-07-28T10:41:19.884Z,0.50
2022-07-28T10:43:47.460Z,0.70
2022-07-28T10:46:16.858Z,0.60
2022-07-28T10:48:45.227Z,0.97
2022-07-28T10:51:13.820Z,0.93
2022-07-28T10:53:47.715Z,0.83
2022-07-28T10:56:28.620Z,0.50
2022-07-28T10:59:09.962Z,0.53
2022-07-28T11:01:53.360Z,0.70
2022-07-28T11:04:39.376Z,0.60
2022-07-28T11:07:10.792Z,0.63
2022-07-28T11:09:38.063Z,0.60
2022-07-28T11:12:06.241Z,0.70
2022-07-28T11:14:39.517Z,0.70
2022-07-28T11:17:10.247Z,0.70
2022-07-28T11:20:16.210Z,0.70
2022-07-28T11:22:33.891Z,0.70
2022-07-28T11:25:18.906Z,0.80
2022-07-28T11:27:50.683Z,0.50
2022-07-28T11:30:36.116Z,0.53
2022-07-28T11:33:11.065Z,0.77
2022-07-28T11:35:41.233Z,0.60
2022-07-28T11:38:09.828Z,0.67
2022-07-28T11:40:40.891Z,0.70
2022-07-28T11:43:36.362Z,0.80
2022-07-28T11:46:10.058Z,0.60
2022-07-28T11:48:39.880Z,0.70
2022-07-28T11:51:07.188Z,0.70
2022-07-28T11:53:38.532Z,0.60
2022-07-28T11:56:06.939Z,1.03
2022-07-28T11:58:34.369Z,0.70
2022-07-28T12:01:17.065Z,0.50
2022-07-28T12:03:54.049Z,0.70
2022-07-28T12:06:29.397Z,0.70
2022-07-28T12:09:02.317Z,0.60
2022-07-28T12:11:32.764Z,0.70
2022-07-28T12:14:07.253Z,0.60
2022-07-28T12:16:35.889Z,0.63
2022-07-28T12:19:03.940Z,0.90
2022-07-28T12:21:46.234Z,0.90
2022-07-28T12:24:18.801Z,0.83
2022-07-28T12:26:49.572Z,0.70
2022-07-28T12:29:20.346Z,0.90
2022-07-28T12:32:02.091Z,0.80
2022-07-28T12:34:30.810Z,0.70
2022-07-28T12:37:02.469Z,0.83
2022-07-28T12:39:30.904Z,0.70
2022-07-28T12:42:05.669Z,0.63
2022-07-28T12:44:33.825Z,0.70
2022-07-28T12:47:01.501Z,0.67
2022-07-28T12:49:28.706Z,0.60
2022-07-28T12:51:55.977Z,0.80
2022-07-28T12:54:34.872Z,0.77
2022-07-28T12:57:02.245Z,0.80
2022-07-28T12:59:36.315Z,0.60
2022-07-28T13:02:04.109Z,0.77
2022-07-28T13:04:38.905Z,0.50
2022-07-28T13:07:12.977Z,0.60
2022-07-28T13:09:46.378Z,0.60
2022-07-28T13:12:16.190Z,0.70
2022-07-28T13:14:44.379Z,0.60
2022-07-28T13:17:11.958Z,0.80
2022-07-28T13:19:39.393Z,0.80
2022-07-28T13:22:09.222Z,1.00
2022-07-28T13:24:36.773Z,1.07
2022-07-28T13:27:04.341Z,0.60
2022-07-28T13:29:35.564Z,1.20
2022-07-28T13:32:02.977Z,0.90
2022-07-28T13:34:30.371Z,0.80
2022-07-28T13:36:57.558Z,0.80
2022-07-28T13:39:25.689Z,0.80
2022-07-28T13:41:58.637Z,0.83
2022-07-28T13:44:30.032Z,1.20
2022-07-28T13:46:59.338Z,1.20
2022-07-28T13:49:27.434Z,0.87
2022-07-28T13:51:54.863Z,1.20
2022-07-28T13:54:22.160Z,0.90
2022-07-28T13:56:49.781Z,0.83
2022-07-28T13:59:16.981Z,1.10
2022-07-28T14:01:44.236Z,1.23
2022-07-28T14:04:17.889Z,1.00
2022-07-28T14:06:45.703Z,1.10
2022-07-28T14:09:18.214Z,0.90
2022-07-28T14:11:49.699Z,1.13
2022-07-28T14:14:20.670Z,1.00
2022-07-28T14:16:52.114Z,0.80
2022-07-28T14:19:23.623Z,1.23
2022-07-28T14:22:12.847Z,1.13
2022-07-28T14:24:41.550Z,0.93
2022-07-28T14:27:08.737Z,1.07
2022-07-28T14:29:37.716Z,1.20
2022-07-28T14:32:05.047Z,1.20
2022-07-28T14:34:32.181Z,1.37
2022-07-28T14:37:01.622Z,1.37
2022-07-28T14:39:32.801Z,1.13
2022-07-28T14:41:59.941Z,1.20
2022-07-28T14:44:27.407Z,1.03
2022-07-28T14:46:54.736Z,1.50
2022-07-28T14:49:22.005Z,1.57
2022-07-28T14:51:50.420Z,1.30
2022-07-28T14:54:17.953Z,1.10
2022-07-28T14:56:45.553Z,1.20
2022-07-28T14:59:12.704Z,1.20
2022-07-28T15:01:40.471Z,1.50
2022-07-28T15:04:07.690Z,1.30
2022-07-28T15:06:34.861Z,1.20
2022-07-28T15:09:02.674Z,1.30
2022-07-28T15:11:30.444Z,1.00
2022-07-28T15:13:57.601Z,1.20
2022-07-28T15:16:25.325Z,1.30
2022-07-28T15:18:53.285Z,1.20
2022-07-28T15:21:20.517Z,1.30
2022-07-28T15:23:48.452Z,1.80
2022-07-28T15:26:15.602Z,1.30
2022-07-28T15:28:42.812Z,1.50
2022-07-28T15:31:10.061Z,1.53
2022-07-28T15:33:45.363Z,1.57
2022-07-28T15:36:15.185Z,1.23
2022-07-28T15:38:47.398Z,1.30
2022-07-28T15:41:16.407Z,1.30
2022-07-28T15:43:43.655Z,1.40
2022-07-28T15:46:12.925Z,1.40
2022-07-28T15:48:41.703Z,1.20
2022-07-28T15:51:09.724Z,1.10
2022-07-28T15:53:37.400Z,1.33
2022-07-28T15:56:04.842Z,1.40
2022-07-28T15:58:31.975Z,1.60
2022-07-28T16:01:01.578Z,1.30
2022-07-28T16:03:29.445Z,1.37
2022-07-28T16:05:56.757Z,1.10
2022-07-28T16:08:23.894Z,1.40
2022-07-28T16:10:54.216Z,1.30
2022-07-28T16:13:36.572Z,1.30
2022-07-28T16:16:14.865Z,1.50
2022-07-28T16:18:44.015Z,1.10
2022-07-28T16:21:11.763Z,1.00
2022-07-28T16:23:38.887Z,1.20
2022-07-28T16:26:07.980Z,1.07
2022-07-28T16:28:35.619Z,1.50
2022-07-28T16:31:02.894Z,1.37
2022-07-28T16:33:33.855Z,1.13
2022-07-28T16:36:01.582Z,1.00
2022-07-28T16:38:28.772Z,1.40
2022-07-28T16:40:57.271Z,1.33
2022-07-28T16:43:24.612Z,1.50
2022-07-28T16:45:51.997Z,1.40
2022-07-28T16:48:19.227Z,1.40
2022-07-28T16:50:46.456Z,1.13
2022-07-28T16:53:14.046Z,1.27
2022-07-28T16:55:46.932Z,0.70
2022-07-28T16:58:14.171Z,1.03
2022-07-28T17:00:41.395Z,0.93
2022-07-28T17:03:11.188Z,1.10
2022-07-28T17:05:38.711Z,0.97
2022-07-28T17:08:06.129Z,1.03
2022-07-28T17:10:33.316Z,1.13
2022-07-28T17:13:00.486Z,1.33
2022-07-28T17:15:28.113Z,1.10
2022-07-28T17:17:56.028Z,1.20
2022-07-28T17:20:25.058Z,1.17
2022-07-28T17:22:52.343Z,1.43
2022-07-28T17:25:45.671Z,1.10
2022-07-28T17:28:07.109Z,1.33
2022-07-28T17:30:34.692Z,1.10
2022-07-28T17:33:08.458Z,1.20
2022-07-28T17:35:36.650Z,1.00
2022-07-28T17:38:04.720Z,1.30
2022-07-28T17:40:31.890Z,1.10
2022-07-28T17:42:59.121Z,1.13
2022-07-28T17:45:26.304Z,1.10
2022-07-28T17:47:53.543Z,1.20
2022-07-28T17:50:20.725Z,1.20
2022-07-28T17:52:47.948Z,1.27
2022-07-28T17:55:57.962Z,1.40
2022-07-28T17:58:27.864Z,1.53
2022-07-28T18:01:09.549Z,1.50
2022-07-28T18:03:57.998Z,1.10
2022-07-28T18:06:26.060Z,1.20
2022-07-28T18:08:53.325Z,1.33
2022-07-28T18:11:20.719Z,1.30
2022-07-28T18:14:03.840Z,1.50
2022-07-28T18:16:34.183Z,1.33
2022-07-28T18:19:02.021Z,1.30
2022-07-28T18:21:29.302Z,1.17
2022-07-28T18:23:56.544Z,1.37
2022-07-28T18:26:23.701Z,1.20
2022-07-28T18:28:50.951Z,1.10
2022-07-28T18:31:18.373Z,1.20
2022-07-28T18:33:45.731Z,1.10
2022-07-28T18:36:12.918Z,1.40
2022-07-28T18:38:41.616Z,1.27
2022-07-28T18:41:08.761Z,1.30
2022-07-28T18:43:35.974Z,1.17
2022-07-28T18:46:05.347Z,1.27
2022-07-28T18:48:32.568Z,1.00
2022-07-28T18:50:59.997Z,1.20
2022-07-28T18:53:28.793Z,1.27
2022-07-28T18:55:55.990Z,1.20
2022-07-28T18:58:23.476Z,1.40
2022-07-28T19:00:50.642Z,1.50
2022-07-28T19:03:17.920Z,1.20
2022-07-28T19:05:46.420Z,1.43
2022-07-28T19:08:13.831Z,1.00
2022-07-28T19:10:41.078Z,1.03
2022-07-28T19:13:09.292Z,1.40
2022-07-28T19:15:40.758Z,1.23
2022-07-28T19:18:11.206Z,1.10
2022-07-28T19:20:39.604Z,1.20
2022-07-28T19:23:06.910Z,1.20
2022-07-28T19:25:36.098Z,1.30
2022-07-28T19:28:03.423Z,1.10
2022-07-28T19:30:32.323Z,1.20
2022-07-28T19:33:00.022Z,1.10
2022-07-28T19:35:27.241Z,1.30
2022-07-28T19:37:56.528Z,1.20
2022-07-28T19:40:25.471Z,1.20
2022-07-28T19:42:53.597Z,1.20
2022-07-28T19:45:20.852Z,1.00
2022-07-28T19:47:49.881Z,1.00
2022-07-28T19:50:17.512Z,1.00
2022-07-28T19:52:44.794Z,1.07
2022-07-28T19:55:12.822Z,1.03
2022-07-28T19:57:45.196Z,1.50
2022-07-28T20:00:13.275Z,1.10
2022-07-28T20:02:40.602Z,1.10
2022-07-28T20:05:08.231Z,1.00
2022-07-28T20:07:35.472Z,0.90
2022-07-28T20:10:02.579Z,1.10
2022-07-28T20:12:35.843Z,1.20
2022-07-28T20:15:04.659Z,1.00
2022-07-28T20:17:38.467Z,1.00
2022-07-28T20:20:07.885Z,1.00
2022-07-28T20:22:35.029Z,1.17
2022-07-28T20:25:02.236Z,1.00
2022-07-28T20:27:29.438Z,1.30
2022-07-28T20:29:58.821Z,0.90
2022-07-28T20:32:26.086Z,1.00
2022-07-28T20:34:53.490Z,0.90
2022-07-28T20:37:31.413Z,1.10
2022-07-28T20:40:03.600Z,1.00
2022-07-28T20:42:30.747Z,0.87
2022-07-28T20:44:57.938Z,1.30
2022-07-28T20:47:26.057Z,1.07
2022-07-28T20:49:54.504Z,1.20
2022-07-28T20:52:21.867Z,1.30
2022-07-28T20:54:54.085Z,1.00
2022-07-28T20:57:21.969Z,1.00
2022-07-28T20:59:51.163Z,1.07
2022-07-28T21:02:19.270Z,1.30
2022-07-28T21:04:46.646Z,1.07
2022-07-28T21:07:18.142Z,1.00
2022-07-28T21:10:06.247Z,1.00
2022-07-28T21:12:34.485Z,1.00
2022-07-28T21:15:01.718Z,1.10
2022-07-28T21:17:28.949Z,1.17
2022-07-28T21:19:56.182Z,1.17
2022-07-28T21:22:23.581Z,1.20
2022-07-28T21:24:55.400Z,1.27
2022-07-28T21:27:23.151Z,1.13
2022-07-28T21:32:17.942Z,1.10
2022-07-28T21:34:45.273Z,1.27
2022-07-28T21:37:12.979Z,1.20
2022-07-28T21:39:40.643Z,1.10
2022-07-28T21:42:09.135Z,1.10
2022-07-28T21:44:37.700Z,1.23
2022-07-28T21:47:05.299Z,1.10
2022-07-28T21:49:32.754Z,1.20
2022-07-28T21:52:00.270Z,1.30
2022-07-28T21:54:28.088Z,1.03
2022-07-28T21:56:55.388Z,1.30
2022-07-28T21:59:22.604Z,1.30
2022-07-28T22:01:49.890Z,0.97
2022-07-28T22:04:17.710Z,0.97
2022-07-28T22:06:46.123Z,1.20
2022-07-28T22:09:14.032Z,1.10
2022-07-28T22:11:41.203Z,1.43
2022-07-28T22:14:08.324Z,1.20
2022-07-28T22:16:35.594Z,1.20
2022-07-28T22:19:02.792Z,1.20
2022-07-28T22:21:30.034Z,1.10
2022-07-28T22:23:57.265Z,1.13
2022-07-28T22:26:24.427Z,1.20
2022-07-28T22:28:51.571Z,1.00
2022-07-28T22:31:18.856Z,1.13
2022-07-28T22:33:46.152Z,1.17
2022-07-28T22:36:13.314Z,1.00
2022-07-28T22:38:40.490Z,1.10
2022-07-28T22:41:07.747Z,1.17
2022-07-28T22:43:35.099Z,1.07
2022-07-28T22:46:02.354Z,0.90
2022-07-28T22:48:29.532Z,1.17
2022-07-28T22:50:56.721Z,1.07
2022-07-28T22:53:23.854Z,1.20
2022-07-28T22:55:51.013Z,0.93
2022-07-28T22:58:18.180Z,1.10
2022-07-28T23:00:45.455Z,1.20
2022-07-28T23:03:13.194Z,1.20
2022-07-28T23:05:40.704Z,1.10
2022-07-28T23:08:07.966Z,1.10
2022-07-28T23:10:37.727Z,1.10
2022-07-28T23:13:05.009Z,1.23
2022-07-28T23:15:40.868Z,1.10
2022-07-28T23:18:10.451Z,1.10
2022-07-28T23:20:38.048Z,0.83
2022-07-28T23:23:05.197Z,1.13
2022-07-28T23:25:32.390Z,0.80
2022-07-28T23:28:00.577Z,1.03
2022-07-28T23:30:27.799Z,1.00
2022-07-28T23:32:55.193Z,1.10
2022-07-28T23:35:22.356Z,1.00
2022-07-28T23:37:49.471Z,1.30
2022-07-28T23:40:16.611Z,1.40
2022-07-28T23:42:43.791Z,1.20
2022-07-28T23:45:11.206Z,1.10
2022-07-28T23:47:38.380Z,1.10
2022-07-28T23:50:05.881Z,1.30
2022-07-28T23:52:33.052Z,1.10
2022-07-28T23:55:00.223Z,1.13
2022-07-28T23:57:30.900Z,1.20
2022-07-28T23:59:58.670Z,1.40
